createdAt,value
2022-08-07T00:02:36.647Z,36.20
2022-08-07T00:05:01.227Z,36.30
2022-08-07T00:07:39.223Z,36.60
2022-08-07T00:10:30.711Z,36.40
2022-08-07T00:13:01.840Z,36.30
2022-08-07T00:15:38.047Z,36.30
2022-08-07T00:18:19.247Z,36.70
2022-08-07T00:20:49.237Z,37.00
2022-08-07T00:23:17.845Z,36.60
2022-08-07T00:25:59.050Z,36.90
2022-08-07T00:28:33.619Z,36.90
2022-08-07T00:31:05.942Z,37.10
2022-08-07T00:33:35.039Z,36.60
2022-08-07T00:36:03.892Z,36.80
2022-08-07T00:38:33.355Z,36.70
2022-08-07T00:41:02.620Z,37.30
2022-08-07T00:44:01.217Z,37.10
2022-08-07T00:46:18.963Z,37.30
2022-08-07T00:48:49.891Z,37.60
2022-08-07T00:51:19.471Z,37.70
2022-08-07T00:53:50.630Z,38.10
2022-08-07T00:56:30.080Z,37.50
2022-08-07T00:58:59.286Z,37.70
2022-08-07T01:01:27.387Z,38.10
2022-08-07T01:04:00.031Z,37.80
2022-08-07T01:06:28.755Z,37.90
2022-08-07T01:09:00.786Z,37.40
2022-08-07T01:12:09.744Z,38.10
2022-08-07T01:14:21.223Z,38.40
2022-08-07T01:16:57.454Z,38.20
2022-08-07T01:19:25.749Z,38.60
2022-08-07T01:21:56.002Z,38.60
2022-08-07T01:24:23.932Z,38.00
2022-08-07T01:26:53.945Z,37.80
2022-08-07T01:29:27.948Z,38.00
2022-08-07T01:31:59.802Z,38.20
2022-08-07T01:34:31.077Z,38.60
2022-08-07T01:37:01.401Z,38.60
2022-08-07T01:39:41.280Z,38.90
2022-08-07T01:42:39.338Z,38.40
2022-08-07T01:45:04.808Z,38.50
2022-08-07T01:48:27.338Z,38.90
2022-08-07T01:50:29.235Z,38.90
2022-08-07T01:53:01.140Z,39.70
2022-08-07T01:55:37.183Z,39.20
2022-08-07T01:58:29.623Z,38.90
2022-08-07T02:01:10.116Z,38.90
2022-08-07T02:03:57.349Z,39.10
2022-08-07T02:06:31.229Z,39.10
2022-08-07T02:09:05.097Z,39.30
2022-08-07T02:12:02.806Z,39.10
2022-08-07T02:14:40.195Z,39.10
2022-08-07T02:17:11.194Z,39.30
2022-08-07T02:20:06.942Z,39.60
2022-08-07T02:22:32.055Z,39.80
2022-08-07T02:25:07.430Z,40.10
2022-08-07T02:27:43.808Z,40.30
2022-08-07T02:30:19.539Z,40.40
2022-08-07T02:33:00.972Z,40.50
2022-08-07T02:36:30.526Z,40.60
2022-08-07T02:38:31.575Z,40.40
2022-08-07T02:41:04.039Z,40.20
2022-08-07T02:43:33.769Z,40.90
2022-08-07T02:46:03.755Z,40.70
2022-08-07T02:48:31.835Z,40.80
2022-08-07T02:51:04.020Z,40.90
2022-08-07T02:53:38.629Z,41.00
2022-08-07T02:56:21.092Z,41.00
2022-08-07T02:58:54.190Z,41.10
2022-08-07T03:01:35.867Z,41.10
2022-08-07T03:04:07.607Z,41.30
2022-08-07T03:06:41.392Z,41.40
2022-08-07T03:09:11.105Z,41.30
2022-08-07T03:11:52.228Z,41.60
2022-08-07T03:14:25.780Z,42.10
2022-08-07T03:16:53.750Z,41.90
2022-08-07T03:19:22.064Z,41.80
2022-08-07T03:21:51.110Z,41.60
2022-08-07T03:24:27.243Z,41.70
2022-08-07T03:27:01.572Z,41.70
2022-08-07T03:29:36.597Z,41.50
2022-08-07T03:32:13.309Z,42.00
2022-08-07T03:34:47.362Z,42.30
2022-08-07T03:37:37.405Z,42.10
2022-08-07T03:40:16.910Z,43.20
2022-08-07T03:42:47.116Z,43.90
2022-08-07T03:45:30.046Z,43.80
2022-08-07T03:47:59.530Z,43.30
2022-08-07T03:50:29.117Z,43.30
2022-08-07T03:52:59.281Z,42.90
2022-08-07T03:55:53.406Z,43.20
2022-08-07T03:58:35.122Z,43.60
2022-08-07T04:01:11.255Z,43.30
2022-08-07T04:03:49.659Z,43.70
2022-08-07T04:06:37.348Z,44.30
2022-08-07T04:09:15.498Z,44.80
2022-08-07T04:12:24.710Z,44.90
2022-08-07T04:14:38.566Z,45.40
2022-08-07T04:17:29.373Z,45.60
2022-08-07T04:20:00.150Z,46.00
2022-08-07T04:22:30.071Z,45.80
2022-08-07T04:25:01.223Z,46.00
2022-08-07T04:27:35.852Z,46.40
2022-08-07T04:30:21.376Z,46.40
2022-08-07T04:32:58.889Z,46.50
2022-08-07T04:35:27.329Z,46.20
2022-08-07T04:38:05.566Z,46.40
2022-08-07T04:40:35.136Z,47.20
2022-08-07T04:43:03.813Z,47.40
2022-08-07T04:45:57.384Z,47.30
2022-08-07T04:48:35.337Z,47.30
2022-08-07T04:51:09.047Z,47.10
2022-08-07T04:54:05.669Z,47.20
2022-08-07T04:58:11.572Z,47.30
2022-08-07T05:00:11.475Z,47.20
2022-08-07T05:02:28.964Z,47.30
2022-08-07T05:05:03.394Z,47.20
2022-08-07T05:07:57.452Z,47.60
2022-08-07T05:10:34.254Z,47.70
2022-08-07T05:14:44.874Z,47.40
2022-08-07T05:15:57.888Z,47.90
2022-08-07T05:18:29.838Z,48.10
2022-08-07T05:21:00.889Z,48.20
2022-08-07T05:23:35.487Z,48.00
2022-08-07T05:26:13.170Z,48.40
2022-08-07T05:28:50.197Z,48.50
2022-08-07T05:31:20.746Z,48.70
2022-08-07T05:34:04.431Z,48.10
2022-08-07T05:36:35.713Z,48.10
2022-08-07T05:40:05.434Z,48.10
2022-08-07T05:42:01.158Z,48.00
2022-08-07T05:44:34.582Z,47.60
2022-08-07T05:47:18.255Z,47.70
2022-08-07T05:49:49.875Z,47.30
2022-08-07T05:52:20.225Z,47.00
2022-08-07T05:54:55.706Z,46.80
2022-08-07T05:57:30.025Z,47.00
2022-08-07T06:00:00.220Z,47.10
2022-08-07T06:02:33.910Z,46.70
2022-08-07T06:05:08.194Z,46.30
2022-08-07T06:08:13.285Z,46.00
2022-08-07T06:10:27.372Z,45.30
2022-08-07T06:12:55.565Z,45.70
2022-08-07T06:15:41.890Z,45.40
2022-08-07T06:18:12.256Z,45.30
2022-08-07T06:20:49.675Z,45.30
2022-08-07T06:23:46.304Z,44.90
2022-08-07T06:26:08.250Z,44.70
2022-08-07T06:28:49.505Z,44.40
2022-08-07T06:31:21.187Z,44.70
2022-08-07T06:33:52.366Z,44.10
2022-08-07T06:36:27.483Z,44.50
2022-08-07T06:40:17.561Z,43.40
2022-08-07T06:42:02.066Z,43.20
2022-08-07T06:44:36.688Z,42.70
2022-08-07T06:47:12.531Z,42.50
2022-08-07T06:49:51.920Z,42.40
2022-08-07T06:52:35.589Z,41.50
2022-08-07T06:55:34.502Z,39.20
2022-08-07T06:57:59.311Z,37.00
2022-08-07T07:00:28.740Z,34.90
2022-08-07T07:03:00.932Z,33.20
2022-08-07T07:06:02.533Z,31.80
2022-08-07T07:08:33.019Z,30.80
2022-08-07T07:11:02.805Z,29.60
2022-08-07T07:13:57.641Z,29.00
2022-08-07T07:16:39.189Z,28.40
2022-08-07T07:19:55.101Z,28.10
2022-08-07T07:22:32.211Z,27.80
2022-08-07T07:25:14.478Z,27.40
2022-08-07T07:28:01.940Z,26.70
2022-08-07T07:30:39.885Z,26.00
2022-08-07T07:33:11.638Z,25.70
2022-08-07T07:35:51.841Z,25.30
2022-08-07T07:38:31.569Z,25.10
2022-08-07T07:41:04.443Z,24.90
2022-08-07T07:44:13.736Z,24.20
2022-08-07T07:46:36.533Z,24.10
2022-08-07T07:50:33.222Z,24.20
2022-08-07T07:52:10.812Z,24.10
2022-08-07T07:54:44.160Z,24.00
2022-08-07T07:57:43.634Z,24.50
2022-08-07T08:00:21.026Z,24.60
2022-08-07T08:03:04.500Z,24.10
2022-08-07T08:05:50.885Z,23.70
2022-08-07T08:08:34.624Z,23.00
2022-08-07T08:11:13.521Z,23.30
2022-08-07T08:13:54.331Z,23.70
2022-08-07T08:16:30.121Z,23.50
2022-08-07T08:19:17.734Z,23.10
2022-08-07T08:22:07.925Z,22.60
2022-08-07T08:25:18.256Z,22.70
2022-08-07T08:27:55.985Z,22.40
2022-08-07T08:30:28.638Z,22.00
2022-08-07T08:33:01.473Z,21.70
2022-08-07T08:35:39.332Z,21.10
2022-08-07T08:38:16.637Z,20.70
2022-08-07T08:40:51.138Z,20.70
2022-08-07T08:43:31.997Z,20.80
2022-08-07T08:46:20.485Z,20.30
2022-08-07T08:48:58.242Z,20.50
2022-08-07T08:51:49.878Z,20.70
2022-08-07T08:54:25.688Z,20.40
2022-08-07T08:56:55.573Z,20.90
2022-08-07T08:59:30.076Z,21.00
2022-08-07T09:02:35.094Z,21.40
2022-08-07T09:05:26.396Z,21.60
2022-08-07T09:08:11.919Z,20.90
2022-08-07T09:10:52.323Z,20.10
2022-08-07T09:13:37.749Z,19.70
2022-08-07T09:16:21.525Z,19.10
2022-08-07T09:19:51.168Z,18.80
2022-08-07T09:24:27.996Z,19.00
2022-08-07T09:25:17.382Z,19.30
2022-08-07T09:27:59.508Z,19.70
2022-08-07T09:30:38.242Z,19.30
2022-08-07T09:33:41.246Z,19.20
2022-08-07T09:36:15.937Z,19.20
2022-08-07T09:38:53.847Z,18.70
2022-08-07T09:41:36.363Z,18.60
2022-08-07T09:44:29.979Z,19.00
2022-08-07T09:47:51.948Z,18.90
2022-08-07T09:50:18.922Z,19.00
2022-08-07T09:52:53.988Z,19.00
2022-08-07T09:55:36.847Z,18.90
2022-08-07T09:58:38.471Z,18.70
2022-08-07T10:01:53.159Z,18.20
2022-08-07T10:04:33.089Z,18.40
2022-08-07T10:07:24.249Z,18.20
2022-08-07T10:10:20.974Z,18.10
2022-08-07T10:13:11.119Z,18.50
2022-08-07T10:16:05.327Z,18.70
2022-08-07T10:18:52.690Z,19.30
2022-08-07T10:22:14.033Z,19.80
2022-08-07T10:24:39.645Z,20.50
2022-08-07T10:27:22.995Z,20.20
2022-08-07T10:30:17.332Z,19.50
2022-08-07T10:33:06.672Z,19.10
2022-08-07T10:35:55.047Z,18.30
2022-08-07T10:38:47.963Z,18.20
2022-08-07T10:41:47.086Z,18.60
2022-08-07T10:44:28.838Z,19.80
2022-08-07T10:47:14.433Z,19.30
2022-08-07T10:49:50.896Z,18.30
2022-08-07T10:52:31.820Z,18.50
2022-08-07T10:55:27.006Z,18.70
2022-08-07T10:58:10.697Z,18.30
2022-08-07T11:00:50.584Z,19.40
2022-08-07T11:03:28.104Z,19.80
2022-08-07T11:06:21.812Z,19.30
2022-08-07T11:08:59.581Z,18.80
2022-08-07T11:11:35.619Z,18.30
2022-08-07T11:14:56.875Z,19.20
2022-08-07T11:17:07.321Z,19.00
2022-08-07T11:19:41.184Z,19.00
2022-08-07T11:22:26.282Z,18.70
2022-08-07T11:25:10.186Z,18.80
2022-08-07T11:28:03.283Z,20.30
2022-08-07T11:30:42.606Z,20.50
2022-08-07T11:33:19.876Z,20.30
2022-08-07T11:36:30.485Z,19.50
2022-08-07T11:39:07.268Z,18.80
2022-08-07T11:42:01.596Z,19.50
2022-08-07T11:44:52.659Z,19.50
2022-08-07T11:47:39.197Z,19.90
2022-08-07T11:50:35.183Z,19.50
2022-08-07T11:53:21.789Z,19.90
2022-08-07T11:56:25.715Z,19.10
2022-08-07T12:00:07.680Z,20.00
2022-08-07T12:02:03.810Z,20.90
2022-08-07T12:05:03.012Z,20.80
2022-08-07T12:07:53.385Z,20.90
2022-08-07T12:10:41.617Z,19.60
2022-08-07T12:13:18.636Z,20.30
2022-08-07T12:16:09.130Z,20.10
2022-08-07T12:18:45.451Z,20.00
2022-08-07T12:22:36.266Z,19.30
2022-08-07T12:24:37.376Z,20.00
2022-08-07T12:27:16.135Z,20.30
2022-08-07T12:29:51.650Z,20.20
2022-08-07T12:32:24.301Z,20.10
2022-08-07T12:34:56.005Z,19.90
2022-08-07T12:37:28.139Z,20.40
2022-08-07T12:40:46.423Z,20.60
2022-08-07T12:43:10.391Z,20.30
2022-08-07T12:45:52.276Z,20.40
2022-08-07T12:48:52.026Z,20.30
2022-08-07T12:51:46.468Z,19.90
2022-08-07T12:54:37.265Z,20.10
2022-08-07T12:57:10.774Z,20.20
2022-08-07T12:59:55.030Z,20.10
2022-08-07T13:02:51.632Z,20.10
2022-08-07T13:06:03.087Z,20.80
2022-08-07T13:08:34.722Z,21.50
2022-08-07T13:11:16.336Z,21.00
2022-08-07T13:13:58.873Z,21.00
2022-08-07T13:16:33.243Z,20.90
2022-08-07T13:19:21.922Z,21.30
2022-08-07T13:22:19.360Z,21.70
2022-08-07T13:24:55.056Z,21.60
2022-08-07T13:28:05.754Z,21.80
2022-08-07T13:30:19.270Z,22.20
2022-08-07T13:34:14.547Z,21.90
2022-08-07T13:36:05.542Z,21.50
2022-08-07T13:38:41.982Z,21.70
2022-08-07T13:41:19.852Z,22.20
2022-08-07T13:43:52.298Z,21.30
2022-08-07T13:46:28.249Z,21.40
2022-08-07T13:49:02.405Z,21.20
2022-08-07T13:52:22.861Z,21.10
2022-08-07T13:54:30.639Z,21.70
2022-08-07T13:57:03.276Z,21.20
2022-08-07T13:59:34.115Z,22.00
2022-08-07T14:02:08.617Z,22.20
2022-08-07T14:04:49.499Z,21.70
2022-08-07T14:07:21.495Z,21.80
2022-08-07T14:10:02.110Z,22.00
2022-08-07T14:12:54.017Z,21.50
2022-08-07T14:15:32.082Z,21.10
2022-08-07T14:18:28.057Z,21.90
2022-08-07T14:21:21.111Z,21.90
2022-08-07T14:24:02.287Z,21.90
2022-08-07T14:26:33.346Z,21.60
2022-08-07T14:29:10.599Z,21.40
2022-08-07T14:31:56.642Z,21.20
2022-08-07T14:34:30.085Z,21.80
2022-08-07T14:37:01.783Z,22.00
2022-08-07T14:40:15.849Z,22.50
2022-08-07T14:42:25.933Z,22.30
2022-08-07T14:44:59.911Z,22.00
2022-08-07T14:47:49.557Z,21.70
2022-08-07T14:50:23.614Z,22.20
2022-08-07T14:52:53.869Z,22.10
2022-08-07T14:55:22.888Z,23.00
2022-08-07T14:57:58.326Z,23.00
2022-08-07T15:03:23.352Z,23.40
2022-08-07T15:06:13.066Z,23.20
2022-08-07T15:08:50.345Z,23.40
2022-08-07T15:11:53.152Z,23.70
2022-08-07T15:14:21.039Z,23.70
2022-08-07T15:16:55.748Z,23.20
2022-08-07T15:20:16.165Z,23.50
2022-08-07T15:22:29.507Z,23.50
2022-08-07T15:25:13.487Z,23.60
2022-08-07T15:31:04.531Z,23.80
2022-08-07T15:33:33.394Z,23.60
2022-08-07T15:36:05.623Z,23.60
2022-08-07T15:38:51.697Z,23.60
2022-08-07T15:42:44.418Z,23.50
2022-08-07T15:44:19.940Z,24.10
2022-08-07T15:46:56.565Z,24.40
2022-08-07T15:50:05.153Z,24.00
2022-08-07T15:52:30.397Z,23.80
2022-08-07T15:55:03.576Z,23.90
2022-08-07T15:57:48.904Z,23.30
2022-08-07T16:00:31.881Z,23.30
2022-08-07T16:03:05.471Z,23.50
2022-08-07T16:05:36.119Z,23.20
2022-08-07T16:08:32.105Z,23.60
2022-08-07T16:11:02.527Z,23.80
2022-08-07T16:13:59.829Z,23.70
2022-08-07T16:16:51.061Z,23.80
2022-08-07T16:19:58.453Z,23.90
2022-08-07T16:22:57.289Z,24.00
2022-08-07T16:25:53.998Z,23.70
2022-08-07T16:30:09.075Z,23.50
2022-08-07T16:31:51.045Z,23.20
2022-08-07T16:34:23.888Z,23.40
2022-08-07T16:38:03.834Z,23.40
2022-08-07T16:40:57.031Z,23.70
2022-08-07T16:44:40.192Z,24.00
2022-08-07T16:47:28.899Z,24.00
2022-08-07T16:50:35.145Z,24.10
2022-08-07T16:53:48.077Z,24.20
2022-08-07T16:56:21.438Z,23.40
2022-08-07T16:59:11.059Z,23.30
2022-08-07T17:01:56.971Z,23.40
2022-08-07T17:04:36.737Z,23.90
2022-08-07T17:07:28.438Z,24.50
2022-08-07T17:10:32.242Z,24.30
2022-08-07T17:13:25.287Z,24.40
2022-08-07T17:16:15.561Z,24.40
2022-08-07T17:18:50.264Z,24.20
2022-08-07T17:21:22.697Z,24.30
2022-08-07T17:24:00.438Z,24.80
2022-08-07T17:26:50.154Z,25.30
2022-08-07T17:30:15.892Z,25.30
2022-08-07T17:32:30.548Z,25.50
2022-08-07T17:35:50.983Z,25.30
2022-08-07T17:38:05.736Z,25.10
2022-08-07T17:40:44.374Z,25.80
2022-08-07T17:44:01.718Z,25.90
2022-08-07T17:46:16.062Z,25.70
2022-08-07T17:49:09.157Z,26.00
2022-08-07T17:52:00.175Z,25.80
2022-08-07T17:54:54.083Z,26.00
2022-08-07T17:57:56.085Z,26.40
2022-08-07T18:00:27.581Z,26.80
2022-08-07T18:03:09.225Z,26.20
2022-08-07T18:06:03.102Z,26.20
2022-08-07T18:09:01.419Z,26.00
2022-08-07T18:12:12.070Z,26.30
2022-08-07T18:14:31.602Z,26.80
2022-08-07T18:18:46.849Z,26.80
2022-08-07T18:21:12.638Z,27.10
2022-08-07T18:23:42.618Z,27.50
2022-08-07T18:26:02.845Z,27.80
2022-08-07T18:28:58.364Z,27.90
2022-08-07T18:31:50.045Z,28.10
2022-08-07T18:34:53.344Z,28.40
2022-08-07T18:38:56.908Z,28.20
2022-08-07T18:40:50.202Z,28.80
2022-08-07T18:43:49.160Z,28.80
2022-08-07T18:46:26.928Z,28.80
2022-08-07T18:50:31.211Z,28.90
2022-08-07T18:52:38.701Z,28.80
2022-08-07T18:55:41.214Z,29.00
2022-08-07T18:58:24.122Z,29.20
2022-08-07T19:01:06.547Z,29.40
2022-08-07T19:03:45.492Z,29.40
2022-08-07T19:06:22.149Z,29.50
2022-08-07T19:09:55.811Z,29.30
2022-08-07T19:12:15.409Z,29.50
2022-08-07T19:16:02.431Z,29.60
2022-08-07T19:18:13.473Z,29.60
2022-08-07T19:21:09.094Z,29.60
2022-08-07T19:23:58.789Z,29.70
2022-08-07T19:26:53.493Z,29.80
2022-08-07T19:31:05.815Z,30.00
2022-08-07T19:32:27.151Z,30.30
2022-08-07T19:35:02.680Z,30.50
2022-08-07T19:37:57.076Z,30.70
2022-08-07T19:40:31.349Z,31.00
2022-08-07T19:43:10.859Z,31.70
2022-08-07T19:46:05.988Z,32.00
2022-08-07T19:48:43.078Z,32.70
2022-08-07T19:51:19.137Z,33.20
2022-08-07T19:54:31.864Z,33.50
2022-08-07T19:57:51.866Z,33.10
2022-08-07T19:59:41.664Z,33.60
2022-08-07T20:02:19.560Z,34.00
2022-08-07T20:04:55.951Z,33.60
2022-08-07T20:07:47.346Z,33.70
2022-08-07T20:10:35.952Z,34.60
2022-08-07T20:13:22.917Z,34.70
2022-08-07T20:15:53.762Z,35.00
2022-08-07T20:18:33.667Z,35.20
2022-08-07T20:21:14.559Z,34.90
2022-08-07T20:23:57.886Z,35.60
2022-08-07T20:26:38.878Z,36.50
2022-08-07T20:29:47.228Z,36.20
2022-08-07T20:32:11.506Z,35.70
2022-08-07T20:34:53.796Z,35.40
2022-08-07T20:37:29.279Z,35.20
2022-08-07T20:40:02.597Z,34.60
2022-08-07T20:42:34.443Z,34.30
2022-08-07T20:45:32.249Z,34.40
2022-08-07T20:47:58.348Z,34.30
2022-08-07T20:50:30.481Z,33.80
2022-08-07T20:53:00.741Z,34.00
2022-08-07T20:55:31.995Z,33.90
2022-08-07T20:58:12.242Z,33.70
2022-08-07T21:00:55.995Z,33.80
2022-08-07T21:03:26.179Z,33.80
2022-08-07T21:06:00.717Z,33.90
2022-08-07T21:08:37.973Z,33.80
2022-08-07T21:11:12.023Z,33.70
2022-08-07T21:14:16.595Z,33.80
2022-08-07T21:16:56.181Z,34.10
2022-08-07T21:19:32.490Z,34.60
2022-08-07T21:22:19.076Z,34.70
2022-08-07T21:25:04.737Z,34.70
2022-08-07T21:27:54.578Z,34.60
2022-08-07T21:30:38.582Z,34.60
2022-08-07T21:33:17.491Z,34.60
2022-08-07T21:36:04.881Z,35.20
2022-08-07T21:38:50.030Z,35.40
2022-08-07T21:41:27.794Z,35.70
2022-08-07T21:44:14.734Z,35.50
2022-08-07T21:47:02.180Z,35.30
2022-08-07T21:49:40.551Z,35.10
2022-08-07T21:52:35.110Z,35.20
2022-08-07T21:55:10.834Z,35.90
2022-08-07T21:57:52.748Z,35.50
2022-08-07T22:00:25.120Z,35.40
2022-08-07T22:03:03.529Z,35.30
2022-08-07T22:05:45.160Z,35.50
2022-08-07T22:08:18.939Z,35.40
2022-08-07T22:10:50.550Z,35.70
2022-08-07T22:13:24.011Z,35.90
2022-08-07T22:16:43.042Z,36.00
2022-08-07T22:19:09.131Z,36.00
2022-08-07T22:22:02.009Z,35.90
2022-08-07T22:24:35.531Z,35.90
2022-08-07T22:27:10.167Z,36.10
2022-08-07T22:29:48.329Z,36.10
2022-08-07T22:32:25.072Z,35.90
2022-08-07T22:34:55.126Z,35.50
2022-08-07T22:38:02.953Z,35.30
2022-08-07T22:40:26.752Z,35.20
2022-08-07T22:43:02.553Z,35.10
2022-08-07T22:46:21.306Z,35.40
2022-08-07T22:49:02.014Z,35.60
2022-08-07T22:51:49.331Z,37.10
2022-08-07T22:54:37.930Z,37.30
2022-08-07T22:57:17.121Z,37.10
2022-08-07T22:59:53.373Z,37.80
2022-08-07T23:02:42.442Z,38.60
2022-08-07T23:06:08.767Z,38.70
2022-08-07T23:08:46.299Z,37.40
2022-08-07T23:11:29.516Z,35.80
2022-08-07T23:14:24.981Z,35.30
2022-08-07T23:17:20.368Z,34.90
2022-08-07T23:20:52.482Z,35.10
2022-08-07T23:24:06.527Z,35.20
2022-08-07T23:26:50.608Z,35.20
2022-08-07T23:30:37.970Z,35.30
2022-08-07T23:34:34.365Z,35.20
2022-08-07T23:36:03.372Z,35.20
2022-08-07T23:38:47.710Z,34.80
2022-08-07T23:41:47.609Z,34.90
2022-08-07T23:45:15.287Z,34.80
2022-08-07T23:48:02.629Z,34.50
2022-08-07T23:50:36.908Z,34.40
2022-08-07T23:53:49.382Z,34.10
2022-08-07T23:56:21.148Z,34.40
2022-08-07T23:59:00.180Z,34.60
